Time;durP1;ratioP1;P1;durP2;ratioP2;P2;SDS_P1;SDS_P2;PMS_P1;PMS_P2;Temp;Humidity;BMP_temperature;BMP_pressure;BME280_temperature;BME280_humidity;BME280_pressure;Samples;Min_cycle;Max_cycle;Signal;HPM_P1;HPM_P2
2021/06/02 00:01:09;;;;;;;5.43;4.18;;;;;;;14.34;53.27;98685.66;3609220;39;20401;-61
2021/06/02 00:03:40;;;;;;;7.53;4.60;;;;;;;14.26;53.54;98683.28;3609071;39;20047;-64
2021/06/02 00:06:11;;;;;;;5.05;3.75;;;;;;;14.13;53.85;98685.03;3609744;39;20493;-61
2021/06/02 00:08:39;;;;;;;4.70;4.30;;;;;;;14.12;54.03;98686.06;3609669;39;20084;-60
2021/06/02 00:11:07;;;;;;;6.45;4.65;;;;;;;14.13;54.11;98684.22;3609697;39;20043;-61
2021/06/02 00:13:34;;;;;;;5.95;4.80;;;;;;;14.04;54.30;98686.34;3611467;39;20385;-61
2021/06/02 00:16:03;;;;;;;5.57;4.28;;;;;;;13.96;54.40;98683.13;3613386;39;20341;-61
2021/06/02 00:18:30;;;;;;;5.55;4.35;;;;;;;13.98;54.89;98683.72;3613226;39;20047;-62
2021/06/02 00:20:59;;;;;;;5.75;4.65;;;;;;;14.01;54.72;98681.44;3612356;39;20051;-61
2021/06/02 00:23:27;;;;;;;7.40;4.70;;;;;;;14.05;54.45;98680.00;3609464;39;20261;-62
2021/06/02 00:25:55;;;;;;;5.78;4.72;;;;;;;13.89;54.89;98672.56;3609191;39;20072;-61
2021/06/02 00:28:22;;;;;;;4.88;3.92;;;;;;;13.95;54.77;98670.88;3609234;39;20061;-61
2021/06/02 00:30:51;;;;;;;6.30;4.35;;;;;;;13.97;54.62;98672.28;3608489;39;20384;-61
2021/06/02 00:33:19;;;;;;;4.57;4.03;;;;;;;13.83;54.86;98674.22;3609418;39;20353;-62
2021/06/02 00:35:47;;;;;;;5.28;4.63;;;;;;;13.70;55.26;98674.31;3609249;39;20112;-60
2021/06/02 00:38:17;;;;;;;5.93;4.82;;;;;;;13.62;55.89;98671.94;3608512;39;20304;-61
2021/06/02 00:40:48;;;;;;;5.90;4.75;;;;;;;13.58;55.55;98671.56;3608527;39;20040;-61
2021/06/02 00:43:15;;;;;;;6.50;4.85;;;;;;;13.52;56.02;98675.06;3609633;39;20036;-60
2021/06/02 00:45:44;;;;;;;4.90;4.40;;;;;;;13.52;55.84;98671.63;3609580;39;20032;-61
2021/06/02 00:48:14;;;;;;;5.65;4.40;;;;;;;13.51;56.11;98667.31;3609027;39;20397;-61
2021/06/02 00:50:43;;;;;;;5.97;4.80;;;;;;;13.48;55.91;98671.22;3609642;39;20098;-61
2021/06/02 00:53:12;;;;;;;6.05;4.72;;;;;;;13.44;56.21;98658.59;3608675;39;20036;-61
2021/06/02 00:55:42;;;;;;;6.47;4.95;;;;;;;13.41;56.38;98664.31;3607897;39;20039;-60
2021/06/02 00:58:13;;;;;;;4.72;4.20;;;;;;;13.44;56.58;98663.91;3608265;39;20030;-61
2021/06/02 01:00:41;;;;;;;4.90;4.40;;;;;;;13.46;56.44;98667.97;3609655;39;20083;-62
2021/06/02 01:03:11;;;;;;;8.27;4.75;;;;;;;13.30;56.19;98677.22;3609532;39;20046;-62
2021/06/02 01:05:41;;;;;;;8.15;4.95;;;;;;;13.13;56.96;98674.25;3609157;39;20040;-62
2021/06/02 01:08:09;;;;;;;5.57;5.07;;;;;;;13.03;57.20;98671.25;3609222;39;20047;-61
2021/06/02 01:10:37;;;;;;;5.20;4.68;;;;;;;13.00;57.46;98666.34;3609147;39;20483;-61
2021/06/02 01:13:07;;;;;;;9.43;5.15;;;;;;;12.95;57.47;98666.19;3609321;39;20108;-61
2021/06/02 01:15:35;;;;;;;6.47;4.93;;;;;;;12.84;57.66;98661.53;3609262;39;20079;-62
2021/06/02 01:18:03;;;;;;;6.72;5.00;;;;;;;12.82;57.67;98661.75;3608013;39;20053;-62
2021/06/02 01:20:32;;;;;;;5.25;4.20;;;;;;;12.82;57.95;98661.75;3609014;39;20052;-61
2021/06/02 01:23:01;;;;;;;5.47;4.90;;;;;;;12.91;57.79;98664.16;3608296;39;20132;-61
2021/06/02 01:25:29;;;;;;;5.47;4.50;;;;;;;12.88;58.14;98666.19;3609221;39;20040;-61
2021/06/02 01:27:56;;;;;;;5.07;4.65;;;;;;;12.77;58.20;98669.50;3608966;39;20058;-61
2021/06/02 01:30:23;;;;;;;6.70;4.90;;;;;;;12.78;58.37;98673.78;3609195;39;20047;-61
2021/06/02 01:33:24;;;;;;;4.88;4.30;;;;;;;12.72;58.67;98676.47;3608113;39;20128;-61
2021/06/02 01:36:04;;;;;;;4.90;4.00;;;;;;;12.84;58.58;98674.78;3597787;39;20028;-61
2021/06/02 01:39:06;;;;;;;4.57;4.18;;;;;;;12.86;58.34;98670.09;3608647;39;20050;-61
2021/06/02 01:41:57;;;;;;;5.85;4.43;;;;;;;12.87;58.09;98667.22;3608171;39;20091;-60
2021/06/02 01:45:07;;;;;;;4.80;4.38;;;;;;;12.82;58.16;98671.53;3609510;39;20404;-61
2021/06/02 01:48:07;;;;;;;5.32;4.57;;;;;;;12.79;58.35;98671.94;3603472;39;20030;-61
2021/06/02 01:51:09;;;;;;;5.20;4.70;;;;;;;12.62;58.12;98675.06;3609027;39;20051;-61
2021/06/02 01:53:47;;;;;;;6.18;4.85;;;;;;;12.43;58.93;98675.94;3609796;39;20284;-62
2021/06/02 01:56:47;;;;;;;5.65;4.82;;;;;;;12.34;59.54;98667.38;3607925;39;20070;-61
2021/06/02 01:59:51;;;;;;;4.63;4.22;;;;;;;12.36;59.57;98675.13;3609903;39;20081;-61
2021/06/02 02:02:34;;;;;;;5.43;4.93;;;;;;;12.34;59.46;98690.44;3607536;39;20187;-61
2021/06/02 02:05:15;;;;;;;8.27;5.20;;;;;;;12.22;60.02;98689.44;3608144;39;20089;-61
2021/06/02 02:08:10;;;;;;;6.18;5.05;;;;;;;12.26;59.94;98696.75;3608832;39;20087;-61
2021/06/02 02:10:45;;;;;;;10.98;5.40;;;;;;;12.21;59.79;98691.28;3609074;39;20132;-61
2021/06/02 02:13:43;;;;;;;5.85;4.85;;;;;;;12.25;60.21;98678.44;3608165;39;20055;-61
2021/06/02 02:16:23;;;;;;;6.32;5.72;;;;;;;12.22;59.95;98686.78;3608086;39;20028;-61
2021/06/02 02:19:15;;;;;;;5.55;4.80;;;;;;;12.03;60.30;98688.41;3609184;39;20403;-61
2021/06/02 02:21:54;;;;;;;5.50;4.97;;;;;;;12.04;60.34;98687.38;3608949;39;20424;-60
2021/06/02 02:24:37;;;;;;;7.15;4.60;;;;;;;12.10;60.56;98695.34;3608761;39;20055;-62
2021/06/02 02:27:23;;;;;;;5.70;5.13;;;;;;;12.18;60.31;98689.03;3728589;22;20130;-65
2021/06/02 02:29:59;;;;;;;5.50;4.60;;;;;;;12.25;60.02;98695.13;3629243;39;20053;-64
2021/06/02 02:32:45;;;;;;;5.88;5.22;;;;;;;12.17;59.99;98694.53;3628839;39;20054;-64
2021/06/02 02:35:25;;;;;;;10.02;5.10;;;;;;;12.15;60.03;98692.06;3628982;39;20082;-64
2021/06/02 02:38:05;;;;;;;6.20;4.88;;;;;;;12.13;60.12;98688.84;3628812;39;20062;-64
2021/06/02 02:40:44;;;;;;;7.22;5.10;;;;;;;11.97;60.13;98697.19;3629176;39;20486;-64
2021/06/02 02:43:17;;;;;;;6.22;5.00;;;;;;;11.87;60.48;98694.94;3629015;39;20059;-64
2021/06/02 02:46:02;;;;;;;5.50;4.85;;;;;;;11.84;60.69;98696.16;3628906;39;20050;-64
2021/06/02 02:48:37;;;;;;;5.55;5.05;;;;;;;11.90;60.39;98699.81;3628639;39;20043;-64
2021/06/02 02:51:16;;;;;;;7.15;5.72;;;;;;;11.80;60.45;98696.75;3628834;39;20054;-65
2021/06/02 02:53:49;;;;;;;6.95;5.68;;;;;;;11.64;60.88;98700.59;3628984;39;20055;-65
2021/06/02 02:56:22;;;;;;;6.10;5.23;;;;;;;11.60;61.25;98704.66;3628750;39;20047;-65
2021/06/02 02:58:57;;;;;;;9.77;6.00;;;;;;;11.63;61.16;98702.44;3628450;39;20348;-65
2021/06/02 03:01:32;;;;;;;6.53;5.15;;;;;;;11.56;60.91;98701.59;3629036;39;20051;-65
2021/06/02 03:04:06;;;;;;;8.30;5.32;;;;;;;11.49;60.97;98699.97;3628930;39;20615;-65
2021/06/02 03:06:36;;;;;;;7.72;5.25;;;;;;;11.42;61.14;98705.22;3628542;39;20035;-64
2021/06/02 03:09:08;;;;;;;6.95;5.53;;;;;;;11.32;61.58;98707.47;3628596;39;20098;-64
2021/06/02 03:11:40;;;;;;;7.00;5.55;;;;;;;11.22;61.71;98704.34;3629019;39;20055;-64
2021/06/02 03:14:16;;;;;;;10.77;5.40;;;;;;;11.14;62.20;98708.00;3628882;39;20054;-64
2021/06/02 03:16:53;;;;;;;7.40;5.32;;;;;;;11.11;62.26;98711.88;3629008;39;20130;-64
2021/06/02 03:19:31;;;;;;;5.00;4.60;;;;;;;11.13;62.24;98712.47;3629575;39;20043;-65
2021/06/02 03:22:03;;;;;;;5.75;5.03;;;;;;;11.18;62.10;98711.88;3630341;39;20047;-64
2021/06/02 03:25:00;;;;;;;14.15;7.00;;;;;;;11.27;61.62;98715.19;3630415;39;20042;-64
2021/06/02 03:27:33;;;;;;;10.80;6.00;;;;;;;11.31;61.28;98719.88;3621915;39;20030;-64
2021/06/02 03:30:10;;;;;;;14.47;6.40;;;;;;;11.38;61.28;98717.22;3630443;39;20218;-64
2021/06/02 03:32:51;;;;;;;9.15;5.10;;;;;;;11.41;60.90;98722.13;3630483;39;20479;-65
2021/06/02 03:35:24;;;;;;;9.35;5.00;;;;;;;11.43;60.88;98724.56;3630061;39;20035;-65
2021/06/02 03:38:03;;;;;;;7.53;5.72;;;;;;;11.38;60.96;98725.97;3620559;39;20085;-65
2021/06/02 03:40:41;;;;;;;6.05;5.15;;;;;;;11.24;61.49;98723.50;3630148;39;20146;-64
2021/06/02 03:43:17;;;;;;;6.25;5.57;;;;;;;11.24;61.45;98728.81;3630379;39;20041;-64
2021/06/02 03:45:52;;;;;;;7.32;5.40;;;;;;;11.21;61.38;98730.00;3630339;39;20047;-64
2021/06/02 03:48:28;;;;;;;8.05;5.20;;;;;;;11.13;61.85;98732.81;3620855;39;20126;-65
2021/06/02 03:51:14;;;;;;;6.03;5.43;;;;;;;11.09;61.83;98732.41;3630122;39;20057;-64
2021/06/02 03:53:54;;;;;;;6.50;5.90;;;;;;;11.03;61.88;98730.56;3630283;39;20383;-65
2021/06/02 03:56:34;;;;;;;8.10;6.43;;;;;;;11.00;62.28;98728.31;3630235;39;20047;-64
2021/06/02 03:59:12;;;;;;;10.15;5.30;;;;;;;10.98;62.22;98742.72;3629982;39;20536;-65
2021/06/02 04:01:48;;;;;;;6.40;5.80;;;;;;;11.01;61.97;98734.41;3630650;39;20126;-64
2021/06/02 04:04:25;;;;;;;9.85;7.30;;;;;;;11.04;62.09;98732.19;3630145;39;20058;-65
2021/06/02 04:07:01;;;;;;;6.80;5.22;;;;;;;11.06;61.79;98735.47;3630173;39;20056;-65
2021/06/02 04:09:30;;;;;;;7.50;5.88;;;;;;;10.98;61.82;98730.34;3621033;39;20106;-64
2021/06/02 04:12:10;;;;;;;13.20;5.78;;;;;;;10.95;62.02;98735.19;3630315;39;20046;-65
2021/06/02 04:14:39;;;;;;;8.43;5.57;;;;;;;10.93;62.40;98734.56;3630068;39;20043;-65
2021/06/02 04:17:08;;;;;;;7.65;5.88;;;;;;;11.10;62.28;98733.22;3620443;39;20112;-64
2021/06/02 04:19:36;;;;;;;8.27;5.75;;;;;;;11.31;62.27;98737.59;3629962;39;20047;-64
2021/06/02 04:22:05;;;;;;;8.38;6.43;;;;;;;11.54;61.49;98734.56;3620604;39;20059;-65
2021/06/02 04:24:34;;;;;;;7.53;5.97;;;;;;;11.73;60.89;98731.16;3620657;39;20051;-65
2021/06/02 04:27:04;;;;;;;7.07;5.68;;;;;;;11.82;60.24;98732.59;3629747;39;20103;-65
2021/06/02 04:29:32;;;;;;;7.43;6.00;;;;;;;11.83;59.97;98742.19;3629898;39;20383;-65
2021/06/02 04:32:01;;;;;;;8.40;5.90;;;;;;;11.91;59.92;98738.53;3629904;39;20045;-64
2021/06/02 04:34:29;;;;;;;8.45;7.63;;;;;;;12.11;59.35;98746.50;3629935;39;20417;-64
2021/06/02 04:36:59;;;;;;;9.50;6.53;;;;;;;12.12;58.69;98741.00;3620028;39;20141;-64
2021/06/02 04:39:28;;;;;;;6.60;5.95;;;;;;;12.05;59.24;98739.38;3629751;39;20316;-64
2021/06/02 04:41:56;;;;;;;7.88;6.10;;;;;;;12.04;59.80;98745.66;3629886;39;20431;-64
2021/06/02 04:44:27;;;;;;;7.32;6.40;;;;;;;12.08;60.00;98742.44;3629797;39;20058;-65
2021/06/02 04:46:55;;;;;;;8.10;6.38;;;;;;;12.13;59.21;98740.00;3629611;39;20053;-65
2021/06/02 04:49:35;;;;;;;7.03;6.32;;;;;;;12.22;59.18;98737.94;3629740;39;20380;-65
2021/06/02 04:52:28;;;;;;;10.52;6.32;;;;;;;12.26;58.62;98738.34;3629660;39;20395;-64
2021/06/02 04:55:22;;;;;;;7.65;5.47;;;;;;;12.30;58.65;98742.22;3629783;39;20059;-65
2021/06/02 04:58:15;;;;;;;8.85;5.88;;;;;;;12.48;58.47;98745.03;3624456;39;20380;-65
2021/06/02 05:01:24;;;;;;;8.75;5.97;;;;;;;12.70;58.25;98752.78;3630001;39;20062;-64
2021/06/02 05:04:25;;;;;;;10.13;6.35;;;;;;;12.80;57.66;98753.16;3620148;39;20050;-64
2021/06/02 05:07:31;;;;;;;12.15;8.30;;;;;;;12.88;56.90;98752.94;3629596;39;20050;-65
2021/06/02 05:10:43;;;;;;;18.85;11.23;;;;;;;12.97;56.59;98758.81;3628777;39;20051;-63
2021/06/02 05:13:44;;;;;;;11.20;7.70;;;;;;;13.02;56.11;98751.03;3630292;39;20349;-63
2021/06/02 05:16:53;;;;;;;11.85;7.68;;;;;;;13.01;56.34;98758.19;3626845;39;20051;-64
2021/06/02 05:20:01;;;;;;;8.45;6.93;;;;;;;13.01;56.21;98766.16;3620428;39;20091;-66
2021/06/02 05:23:06;;;;;;;11.25;5.00;;;;;;;13.08;56.28;98769.59;3629654;39;20042;-65
2021/06/02 05:26:10;;;;;;;8.15;5.47;;;;;;;13.31;56.11;98765.69;3629716;39;20330;-65
2021/06/02 05:28:58;;;;;;;5.53;4.88;;;;;;;13.45;55.55;98761.13;3619861;39;20050;-65
2021/06/02 05:32:13;;;;;;;8.82;5.95;;;;;;;13.57;54.97;98767.38;3619957;39;20072;-65
2021/06/02 05:34:56;;;;;;;7.57;4.75;;;;;;;13.67;54.91;98764.25;3598055;39;20054;-65
2021/06/02 05:37:51;;;;;;;5.68;4.88;;;;;;;13.79;54.81;98766.00;3629428;39;20042;-65
2021/06/02 05:40:46;;;;;;;5.20;4.70;;;;;;;13.98;54.10;98758.94;3620125;39;20074;-65
2021/06/02 05:43:43;;;;;;;6.32;5.20;;;;;;;14.10;53.97;98759.88;3619515;39;20078;-65
2021/06/02 05:46:34;;;;;;;6.00;4.78;;;;;;;14.16;53.66;98760.84;3629426;39;20042;-65
2021/06/02 05:49:31;;;;;;;5.40;4.47;;;;;;;14.30;53.38;98757.06;3619453;39;20183;-64
2021/06/02 05:52:21;;;;;;;8.48;4.97;;;;;;;14.52;53.26;98765.50;3629549;39;20475;-64
2021/06/02 05:55:21;;;;;;;6.38;5.78;;;;;;;14.70;52.55;98764.72;3629965;39;20440;-64
2021/06/02 05:58:25;;;;;;;5.25;4.60;;;;;;;14.75;52.42;98758.75;3630145;39;20057;-64
2021/06/02 06:01:29;;;;;;;7.25;4.88;;;;;;;14.95;51.71;98754.03;3629763;39;20126;-64
2021/06/02 06:04:23;;;;;;;5.72;4.72;;;;;;;15.02;51.61;98762.75;3629666;39;20071;-64
2021/06/02 06:07:01;;;;;;;6.87;6.07;;;;;;;15.12;51.74;98759.56;3629721;39;20054;-65
2021/06/02 06:09:52;;;;;;;11.38;6.10;;;;;;;15.26;51.15;98762.88;3629447;39;20287;-64
2021/06/02 06:12:59;;;;;;;12.30;9.45;;;;;;;15.20;51.04;98759.25;3620202;39;20053;-64
2021/06/02 06:15:43;;;;;;;6.93;5.20;;;;;;;15.29;51.34;98754.44;3630388;39;20265;-64
2021/06/02 06:18:39;;;;;;;9.10;5.38;;;;;;;15.50;51.46;98756.59;3629416;39;20057;-64
2021/06/02 06:21:29;;;;;;;9.57;7.10;;;;;;;15.77;50.61;98750.97;3631983;39;20055;-64
2021/06/02 06:24:02;;;;;;;8.45;6.20;;;;;;;15.81;49.97;98749.47;3622817;39;20058;-64
2021/06/02 06:26:34;;;;;;;9.68;5.00;;;;;;;15.94;50.48;98751.13;3632777;39;20035;-63
2021/06/02 06:29:08;;;;;;;6.68;4.40;;;;;;;16.01;50.05;98747.31;3631040;39;20047;-65
2021/06/02 06:31:40;;;;;;;5.75;4.82;;;;;;;16.13;49.76;98755.34;3631214;39;20071;-64
2021/06/02 06:34:10;;;;;;;6.75;3.95;;;;;;;16.23;49.76;98754.75;3629848;39;20082;-64
2021/06/02 06:36:40;;;;;;;6.10;4.03;;;;;;;16.35;49.39;98750.25;3619602;39;20062;-65
2021/06/02 06:39:21;;;;;;;8.23;4.47;;;;;;;16.49;49.73;98759.66;3629115;39;20387;-64
2021/06/02 06:41:49;;;;;;;6.53;4.53;;;;;;;16.65;49.53;98760.78;3629403;39;20086;-65
2021/06/02 06:44:18;;;;;;;7.95;4.20;;;;;;;16.88;48.88;98754.66;3619601;39;20048;-65
2021/06/02 06:46:48;;;;;;;8.80;4.15;;;;;;;17.02;47.41;98752.53;3619393;39;20057;-64
2021/06/02 06:49:17;;;;;;;6.53;3.97;;;;;;;17.13;47.36;98748.22;3619215;39;20327;-64
2021/06/02 06:51:52;;;;;;;5.47;3.78;;;;;;;17.31;46.40;98748.88;3628973;39;20053;-64
2021/06/02 06:54:21;;;;;;;6.15;3.30;;;;;;;17.49;45.57;98739.06;3629354;39;20086;-63
2021/06/02 06:56:50;;;;;;;5.43;4.72;;;;;;;17.63;45.15;98745.72;3630277;39;20406;-65
2021/06/02 06:59:19;;;;;;;6.97;3.80;;;;;;;17.80;44.97;98740.47;3630676;39;20419;-64
2021/06/02 07:01:47;;;;;;;3.15;2.85;;;;;;;18.03;43.64;98739.50;3631290;39;20367;-65
2021/06/02 07:04:15;;;;;;;6.97;4.03;;;;;;;18.18;43.08;98739.75;3621069;39;20086;-65
2021/06/02 07:06:43;;;;;;;5.50;4.07;;;;;;;18.25;43.61;98731.56;3630594;39;20053;-65
2021/06/02 07:09:13;;;;;;;6.30;4.45;;;;;;;18.53;42.29;98734.13;3630491;39;20071;-65
2021/06/02 07:11:41;;;;;;;5.20;2.90;;;;;;;18.63;41.46;98729.97;3630948;39;20086;-64
2021/06/02 07:14:11;;;;;;;3.78;2.47;;;;;;;18.60;41.72;98727.78;3630643;39;20422;-64
2021/06/02 07:16:40;;;;;;;3.40;2.90;;;;;;;18.72;42.14;98733.88;3630802;39;20379;-65
2021/06/02 07:19:09;;;;;;;4.78;3.03;;;;;;;18.89;41.29;98736.50;3630585;39;20054;-64
2021/06/02 07:21:40;;;;;;;5.10;2.90;;;;;;;19.04;41.14;98732.16;3630980;39;20057;-64
2021/06/02 07:24:10;;;;;;;5.97;2.83;;;;;;;19.09;40.74;98731.41;3630975;39;20106;-64
2021/06/02 07:26:40;;;;;;;3.17;2.70;;;;;;;19.19;40.71;98736.09;3630323;39;20343;-65
2021/06/02 07:29:25;;;;;;;4.20;2.50;;;;;;;19.41;39.38;98736.88;3631474;39;20045;-64
2021/06/02 07:31:53;;;;;;;4.78;2.50;;;;;;;19.57;39.24;98737.03;3630874;39;20327;-64
2021/06/02 07:34:21;;;;;;;4.68;3.72;;;;;;;19.65;38.65;98732.06;3630430;39;20161;-65
2021/06/02 07:36:50;;;;;;;5.63;3.63;;;;;;;19.82;37.92;98726.59;3630260;39;20062;-65
2021/06/02 07:39:17;;;;;;;2.33;2.20;;;;;;;19.84;38.00;98727.16;3630282;39;20074;-65
2021/06/02 07:41:46;;;;;;;7.55;2.95;;;;;;;19.89;37.80;98737.13;3620604;39;20319;-65
2021/06/02 07:44:13;;;;;;;4.28;3.90;;;;;;;19.98;38.29;98738.28;3630092;39;20069;-65
2021/06/02 07:46:40;;;;;;;5.60;2.50;;;;;;;20.20;36.91;98741.66;3620610;39;20050;-65
2021/06/02 07:49:09;;;;;;;3.28;2.97;;;;;;;20.26;36.95;98735.28;3629958;39;20102;-65
2021/06/02 07:51:36;;;;;;;4.50;3.47;;;;;;;20.38;36.62;98734.28;3630033;39;20050;-64
2021/06/02 07:54:04;;;;;;;6.30;3.03;;;;;;;20.55;36.82;98739.53;3630114;39;20514;-64
2021/06/02 07:56:31;;;;;;;3.75;3.33;;;;;;;20.69;35.81;98736.13;3620367;39;20388;-64
2021/06/02 07:59:00;;;;;;;3.08;2.40;;;;;;;20.84;35.38;98730.03;3629863;39;20399;-65
2021/06/02 08:01:28;;;;;;;5.85;2.88;;;;;;;20.92;35.37;98732.22;3620616;39;20406;-64
2021/06/02 08:03:55;;;;;;;3.08;2.78;;;;;;;20.99;35.61;98732.00;3620530;39;20370;-65
2021/06/02 08:06:22;;;;;;;4.03;2.60;;;;;;;21.00;35.83;98730.91;3629850;39;20047;-64
2021/06/02 08:08:50;;;;;;;2.42;2.20;;;;;;;21.22;34.54;98731.53;3629624;39;20375;-65
2021/06/02 08:11:17;;;;;;;4.05;2.30;;;;;;;21.34;34.40;98722.47;3629801;39;20047;-64
2021/06/02 08:13:44;;;;;;;4.00;2.00;;;;;;;21.45;33.66;98727.59;3629973;39;20048;-63
2021/06/02 08:16:13;;;;;;;5.63;2.58;;;;;;;21.44;33.94;98734.06;3629916;39;20047;-64
2021/06/02 08:18:40;;;;;;;11.00;2.30;;;;;;;21.61;33.11;98733.81;3620062;39;20054;-64
2021/06/02 08:21:07;;;;;;;4.10;2.30;;;;;;;21.60;32.92;98723.34;3629916;39;20050;-64
2021/06/02 08:23:34;;;;;;;3.63;2.20;;;;;;;21.50;33.03;98727.59;3630974;39;20046;-64
2021/06/02 08:26:02;;;;;;;2.83;2.17;;;;;;;21.69;31.79;98722.53;3630216;39;20119;-65
2021/06/02 08:28:29;;;;;;;3.92;2.15;;;;;;;21.75;32.23;98726.03;3629504;39;20426;-65
2021/06/02 08:30:56;;;;;;;2.22;2.03;;;;;;;22.00;31.54;98728.78;3620390;39;20047;-64
2021/06/02 08:33:26;;;;;;;2.05;1.80;;;;;;;22.11;30.87;98726.06;3630050;39;20046;-63
2021/06/02 08:35:53;;;;;;;4.97;2.45;;;;;;;22.01;31.25;98727.69;3620480;39;20040;-64
2021/06/02 08:38:20;;;;;;;6.22;2.38;;;;;;;22.12;31.27;98724.97;3629483;39;20042;-64
2021/06/02 08:40:47;;;;;;;4.10;2.20;;;;;;;22.27;29.79;98724.22;3630042;39;20031;-65
2021/06/02 08:43:19;;;;;;;2.55;1.95;;;;;;;22.44;29.10;98724.72;3620538;39;20138;-63
2021/06/02 08:45:47;;;;;;;2.33;1.85;;;;;;;22.50;29.01;98729.84;3630213;39;20304;-63
2021/06/02 08:48:15;;;;;;;2.10;1.90;;;;;;;22.63;28.60;98723.06;3620162;39;20364;-63
2021/06/02 08:50:44;;;;;;;2.40;2.20;;;;;;;22.89;27.51;98723.78;3620526;39;20031;-64
2021/06/02 08:53:16;;;;;;;2.38;2.05;;;;;;;22.93;27.36;98724.88;3620546;39;20451;-64
2021/06/02 08:55:45;;;;;;;3.45;1.77;;;;;;;22.95;27.56;98719.25;3620427;39;20118;-64
2021/06/02 08:58:17;;;;;;;2.22;2.03;;;;;;;22.98;27.51;98715.97;3619740;39;20296;-64
2021/06/02 09:00:44;;;;;;;2.63;1.98;;;;;;;22.94;27.77;98715.75;3620262;39;20110;-63
2021/06/02 09:03:11;;;;;;;3.75;2.30;;;;;;;23.07;27.65;98717.03;3629632;39;20273;-64
2021/06/02 09:05:39;;;;;;;2.40;1.80;;;;;;;23.32;27.19;98712.59;3629789;39;20137;-64
2021/06/02 09:08:13;;;;;;;3.53;2.25;;;;;;;23.44;26.69;98713.06;3629378;39;20042;-64
2021/06/02 09:10:42;;;;;;;3.97;2.00;;;;;;;23.36;27.13;98713.66;3629921;39;20445;-64
2021/06/02 09:13:16;;;;;;;1.80;1.70;;;;;;;23.33;26.94;98706.91;3629619;39;20058;-64
2021/06/02 09:15:45;;;;;;;4.90;2.03;;;;;;;23.42;26.45;98716.03;3629906;39;20074;-64
2021/06/02 09:18:17;;;;;;;5.47;1.85;;;;;;;23.58;26.11;98715.94;3628951;39;20149;-63
2021/06/02 09:20:47;;;;;;;2.70;2.23;;;;;;;23.61;25.88;98713.50;3629865;39;20403;-64
2021/06/02 09:23:29;;;;;;;3.10;1.80;;;;;;;23.74;26.27;98722.88;3629562;39;20086;-65
2021/06/02 09:25:58;;;;;;;2.47;1.65;;;;;;;23.71;26.03;98724.25;3630052;39;20047;-64
2021/06/02 09:28:54;;;;;;;4.90;2.50;;;;;;;23.71;26.66;98707.25;3629565;39;20055;-64
2021/06/02 09:31:32;;;;;;;4.70;4.28;;;;;;;23.76;26.47;98709.09;3629662;39;20391;-63
2021/06/02 09:34:03;;;;;;;2.65;1.83;;;;;;;23.83;26.33;98710.41;3620273;39;20301;-64
2021/06/02 09:36:32;;;;;;;3.80;1.67;;;;;;;23.79;26.33;98706.66;3619864;39;20035;-64
2021/06/02 09:39:04;;;;;;;4.13;2.05;;;;;;;23.83;26.45;98706.91;3629624;39;20082;-63
2021/06/02 09:41:39;;;;;;;2.13;1.75;;;;;;;23.82;26.08;98711.50;3629831;39;20392;-64
2021/06/02 09:44:17;;;;;;;2.85;2.10;;;;;;;23.83;26.35;98707.69;3629602;39;20042;-64
2021/06/02 09:46:59;;;;;;;6.15;1.90;;;;;;;24.01;26.01;98700.03;3629577;39;20039;-64
2021/06/02 09:49:28;;;;;;;7.35;4.35;;;;;;;24.06;26.32;98705.38;3629434;39;20053;-63
2021/06/02 09:51:56;;;;;;;2.50;1.90;;;;;;;24.19;26.33;98710.91;3629327;39;20082;-64
2021/06/02 09:54:25;;;;;;;2.40;2.20;;;;;;;24.36;26.27;98712.38;3629413;39;20055;-65
2021/06/02 09:56:52;;;;;;;7.85;2.30;;;;;;;24.32;25.98;98704.03;3629278;39;20058;-63
2021/06/02 09:59:19;;;;;;;2.67;1.83;;;;;;;24.34;26.12;98709.19;3629258;39;20421;-64
2021/06/02 10:01:57;;;;;;;4.30;2.00;;;;;;;24.33;25.91;98702.97;3629228;39;20043;-64
2021/06/02 10:04:29;;;;;;;2.70;2.50;;;;;;;24.39;26.16;98712.66;3629580;39;20130;-64
2021/06/02 10:06:57;;;;;;;3.33;1.92;;;;;;;24.48;26.20;98701.22;3628911;39;20082;-64
2021/06/02 10:09:29;;;;;;;2.47;1.67;;;;;;;24.54;25.78;98716.31;3629297;39;20130;-64
2021/06/02 10:11:58;;;;;;;14.38;5.07;;;;;;;24.55;25.88;98707.09;3629365;39;20051;-64
2021/06/02 10:14:25;;;;;;;11.05;6.05;;;;;;;24.65;25.82;98709.69;3619979;39;20059;-62
2021/06/02 10:16:52;;;;;;;4.53;3.20;;;;;;;24.78;25.60;98708.19;3628987;39;20050;-62
2021/06/02 10:19:35;;;;;;;4.95;3.30;;;;;;;24.96;25.06;98708.25;3629279;39;20324;-64
2021/06/02 10:22:07;;;;;;;3.17;2.88;;;;;;;25.01;25.02;98712.78;3629141;39;20056;-63
2021/06/02 10:24:35;;;;;;;4.45;2.25;;;;;;;25.11;24.99;98709.19;3629528;39;20054;-63
2021/06/02 10:27:03;;;;;;;2.22;2.03;;;;;;;25.04;25.05;98711.41;3629200;39;20047;-64
2021/06/02 10:29:31;;;;;;;3.58;2.45;;;;;;;25.02;25.30;98705.47;3630083;39;20130;-64
2021/06/02 10:31:58;;;;;;;1.70;1.60;;;;;;;25.16;24.61;98711.84;3630496;39;20075;-63
2021/06/02 10:34:26;;;;;;;2.13;1.98;;;;;;;25.02;25.33;98708.97;3630849;39;20072;-63
2021/06/02 10:36:53;;;;;;;2.50;1.80;;;;;;;25.06;25.39;98704.59;3630769;39;20059;-63
2021/06/02 10:39:22;;;;;;;2.28;2.08;;;;;;;25.24;25.09;98705.78;3630523;39;20131;-63
2021/06/02 10:41:56;;;;;;;2.30;2.10;;;;;;;25.37;25.08;98701.53;3630885;39;20122;-63
2021/06/02 10:44:31;;;;;;;2.60;2.25;;;;;;;25.43;24.96;98706.59;3630619;39;20083;-63
2021/06/02 10:47:00;;;;;;;1.85;1.75;;;;;;;25.53;24.55;98702.13;3620893;39;20047;-62
2021/06/02 10:49:35;;;;;;;3.28;2.97;;;;;;;25.61;24.38;98699.56;3630809;39;20072;-62
2021/06/02 10:52:03;;;;;;;3.22;1.95;;;;;;;25.56;24.45;98702.34;3630693;39;20082;-63
2021/06/02 10:54:37;;;;;;;2.25;1.80;;;;;;;25.51;24.29;98697.00;3630637;39;20054;-63
2021/06/02 10:57:09;;;;;;;;;;;;;;;25.58;24.76;98702.06;3630973;39;20051;-63
2021/06/02 10:59:37;;;;;;;4.70;2.38;;;;;;;25.70;24.64;98694.28;3630911;39;19971;-63
2021/06/02 11:02:07;;;;;;;2.65;2.35;;;;;;;25.89;23.83;98694.31;3631166;39;20055;-63
2021/06/02 11:04:35;;;;;;;3.40;2.42;;;;;;;26.04;23.57;98698.66;3631229;39;20030;-62
2021/06/02 11:07:17;;;;;;;2.05;1.63;;;;;;;25.97;23.24;98693.63;3631610;39;20047;-64
2021/06/02 11:09:52;;;;;;;2.60;2.03;;;;;;;25.79;24.04;98687.13;3633543;39;20050;-63
2021/06/02 11:12:22;;;;;;;3.65;2.33;;;;;;;25.89;24.18;98692.41;3633207;39;20046;-62
2021/06/02 11:14:50;;;;;;;2.95;1.80;;;;;;;25.87;24.49;98688.38;3633248;39;20053;-62
2021/06/02 11:17:18;;;;;;;4.55;2.17;;;;;;;25.99;23.68;98688.69;3630945;39;20043;-63
2021/06/02 11:19:53;;;;;;;2.30;1.90;;;;;;;26.04;23.63;98693.22;3631267;39;20093;-63
2021/06/02 11:22:24;;;;;;;3.22;2.88;;;;;;;25.94;24.45;98686.09;3630675;39;20456;-62
2021/06/02 11:24:56;;;;;;;1.98;1.75;;;;;;;26.03;24.67;98687.00;3630512;39;20055;-62
2021/06/02 11:27:36;;;;;;;3.35;2.30;;;;;;;26.18;24.35;98685.97;3620666;39;20046;-62
2021/06/02 11:30:25;;;;;;;2.40;2.08;;;;;;;26.43;23.18;98687.41;3630500;39;20411;-62
2021/06/02 11:33:10;;;;;;;2.80;1.77;;;;;;;26.46;23.67;98681.41;3630277;39;20055;-62
2021/06/02 11:36:08;;;;;;;2.50;1.60;;;;;;;26.63;22.99;98683.53;3630340;39;20115;-62
2021/06/02 11:38:41;;;;;;;4.45;3.72;;;;;;;26.66;22.94;98674.81;3620323;39;20410;-62
2021/06/02 11:41:09;;;;;;;3.08;2.53;;;;;;;26.61;22.88;98675.69;3629700;39;20292;-62
2021/06/02 11:43:59;;;;;;;2.35;1.92;;;;;;;26.69;22.98;98676.91;3630499;39;20055;-65
2021/06/02 11:46:45;;;;;;;2.30;2.00;;;;;;;26.81;23.03;98676.38;3629959;39;20042;-62
2021/06/02 11:49:24;;;;;;;1.92;1.60;;;;;;;26.96;22.91;98676.09;3629780;39;20050;-62
2021/06/02 11:51:51;;;;;;;6.32;2.60;;;;;;;27.08;22.88;98673.66;3630049;39;20058;-61
2021/06/02 11:54:18;;;;;;;5.70;2.35;;;;;;;27.19;22.31;98673.44;3629988;39;20047;-62
2021/06/02 11:56:45;;;;;;;3.35;2.50;;;;;;;27.17;22.51;98671.06;3620324;39;20058;-62
2021/06/02 11:59:14;;;;;;;2.50;2.28;;;;;;;27.20;22.59;98669.66;3629750;39;20083;-63
2021/06/02 12:01:41;;;;;;;2.58;1.65;;;;;;;27.08;22.70;98675.56;3629938;39;20059;-63
2021/06/02 12:04:08;;;;;;;5.40;1.90;;;;;;;27.10;22.79;98676.88;3630064;39;20388;-62
2021/06/02 12:06:36;;;;;;;3.95;1.85;;;;;;;27.22;22.55;98681.78;3629846;39;20049;-62
2021/06/02 12:09:10;;;;;;;3.42;1.80;;;;;;;27.03;22.74;98679.19;3630068;39;20054;-62
2021/06/02 12:11:38;;;;;;;2.08;1.80;;;;;;;27.02;23.19;98676.78;3630098;39;20069;-62
2021/06/02 12:14:21;;;;;;;4.15;2.10;;;;;;;26.88;23.24;98685.72;3629976;39;20073;-63